Time;durP1;ratioP1;P1;durP2;ratioP2;P2;SDS_P1;SDS_P2;PMS_P1;PMS_P2;Temp;Humidity;BMP_temperature;BMP_pressure;BME280_temperature;BME280_humidity;BME280_pressure;Samples;Min_cycle;Max_cycle;Signal;HPM_P1;HPM_P2
2022/11/03 00:04:49;;;;;;;38.77;23.87;;;;;;;;;;10365573;28;21023;-90
2022/11/03 00:10:06;;;;;;;39.08;23.48;;;;;;;;;;10355890;28;20411;-88
2022/11/03 00:15:09;;;;;;;40.65;25.23;;;;;;;;;;10353201;28;20802;-89
2022/11/03 00:20:16;;;;;;;44.83;27.17;;;;;;;;;;10358080;28;20418;-87
2022/11/03 00:25:18;;;;;;;43.57;27.37;;;;;;;;;;10354085;28;20425;-89
2022/11/03 00:30:21;;;;;;;47.10;27.55;;;;;;;;;;10346558;28;20509;-89
2022/11/03 00:35:33;;;;;;;45.67;27.95;;;;;;;;;;10345138;28;20454;-87
2022/11/03 00:40:35;;;;;;;47.60;27.58;;;;;;;;;;10346833;28;20426;-90
2022/11/03 00:45:37;;;;;;;51.08;28.08;;;;;;;;;;10346165;28;20411;-90
2022/11/03 00:50:41;;;;;;;47.08;27.33;;;;;;;;;;10337684;28;20427;-90
2022/11/03 00:55:48;;;;;;;48.88;28.05;;;;;;;;;;10360155;28;20449;-90
2022/11/03 01:00:51;;;;;;;50.88;28.15;;;;;;;;;;10367016;28;20415;-90
2022/11/03 01:16:41;;;;;;;48.05;27.92;;;;;;;;;;10366723;28;20391;-89
2022/11/03 01:21:44;;;;;;;49.20;27.48;;;;;;;;;;10365517;28;20489;-90
2022/11/03 01:26:46;;;;;;;47.70;27.90;;;;;;;;;;10366403;28;20918;-88
2022/11/03 01:31:49;;;;;;;50.63;28.50;;;;;;;;;;10366668;28;20433;-89
2022/11/03 01:36:52;;;;;;;47.42;26.85;;;;;;;;;;10365307;28;20529;-89
2022/11/03 01:41:54;;;;;;;48.60;27.88;;;;;;;;;;10365434;28;20411;-88
2022/11/03 01:47:08;;;;;;;46.28;25.80;;;;;;;;;;10365425;28;20469;-89
2022/11/03 01:52:17;;;;;;;44.58;26.50;;;;;;;;;;10356741;28;20852;-88
2022/11/03 01:57:23;;;;;;;45.20;27.02;;;;;;;;;;10354144;28;20577;-89
2022/11/03 02:02:26;;;;;;;48.30;27.63;;;;;;;;;;10355002;28;20415;-89
2022/11/03 02:07:34;;;;;;;47.67;26.25;;;;;;;;;;10341526;28;20485;-89
2022/11/03 02:12:37;;;;;;;42.33;25.83;;;;;;;;;;10351231;28;20546;-90
2022/11/03 02:17:40;;;;;;;44.15;25.70;;;;;;;;;;10347981;28;20415;-89
2022/11/03 02:23:12;;;;;;;45.37;26.57;;;;;;;;;;10356084;28;20447;-90
2022/11/03 02:28:18;;;;;;;49.27;26.43;;;;;;;;;;10350576;28;20421;-89
2022/11/03 02:33:31;;;;;;;45.92;26.60;;;;;;;;;;10338086;28;20427;-89
2022/11/03 02:38:38;;;;;;;43.58;25.23;;;;;;;;;;10362567;28;20497;-90
2022/11/03 02:43:43;;;;;;;43.87;24.83;;;;;;;;;;10352833;28;20964;-90
2022/11/03 02:48:47;;;;;;;44.77;25.37;;;;;;;;;;10363141;28;20418;-89
2022/11/03 02:54:00;;;;;;;45.30;25.17;;;;;;;;;;10355270;28;20487;-89
2022/11/03 02:59:08;;;;;;;44.13;25.63;;;;;;;;;;10329610;28;20512;-88
2022/11/03 03:04:11;;;;;;;46.38;25.15;;;;;;;;;;10353368;28;20783;-89
2022/11/03 03:09:18;;;;;;;40.05;24.83;;;;;;;;;;10355461;28;20511;-89
2022/11/03 03:14:26;;;;;;;41.93;24.83;;;;;;;;;;10355375;28;20529;-90
2022/11/03 03:19:37;;;;;;;44.22;25.38;;;;;;;;;;10359865;28;20421;-90
2022/11/03 03:24:45;;;;;;;48.17;26.60;;;;;;;;;;10390717;28;20403;-90
2022/11/03 03:29:53;;;;;;;45.37;26.40;;;;;;;;;;10362266;28;20414;-89
2022/11/03 03:34:57;;;;;;;48.40;26.77;;;;;;;;;;10349624;28;20427;-89
2022/11/03 03:40:03;;;;;;;46.83;26.23;;;;;;;;;;10359332;28;20427;-90
2022/11/03 03:45:10;;;;;;;48.50;26.42;;;;;;;;;;10353443;28;20407;-89
2022/11/03 03:50:12;;;;;;;47.25;26.45;;;;;;;;;;10349008;28;20502;-90
2022/11/03 03:55:17;;;;;;;50.28;26.83;;;;;;;;;;10352984;28;20419;-89
2022/11/03 04:00:21;;;;;;;48.27;26.97;;;;;;;;;;10332283;28;20407;-88
2022/11/03 04:05:23;;;;;;;46.60;25.83;;;;;;;;;;10361777;28;20476;-89
2022/11/03 04:10:25;;;;;;;47.58;25.52;;;;;;;;;;10362176;28;20478;-89
2022/11/03 04:26:12;;;;;;;49.42;25.73;;;;;;;;;;10354683;28;20401;-89
2022/11/03 04:31:17;;;;;;;44.90;25.67;;;;;;;;;;10350092;28;20451;-90
2022/11/03 04:36:21;;;;;;;45.33;25.10;;;;;;;;;;10356397;28;20835;-89
2022/11/03 04:41:25;;;;;;;44.40;24.70;;;;;;;;;;10365823;28;20444;-89
2022/11/03 04:46:31;;;;;;;48.13;25.83;;;;;;;;;;10343350;28;20451;-89
2022/11/03 04:51:35;;;;;;;50.63;26.63;;;;;;;;;;10356688;28;20419;-89
2022/11/03 04:56:36;;;;;;;47.30;25.95;;;;;;;;;;10368418;28;20490;-90
2022/11/03 05:01:40;;;;;;;51.33;26.48;;;;;;;;;;10355067;28;20411;-89
2022/11/03 05:06:47;;;;;;;46.25;25.80;;;;;;;;;;10355513;28;20403;-89
2022/11/03 05:11:49;;;;;;;43.30;24.88;;;;;;;;;;10368351;28;20485;-90
2022/11/03 05:16:55;;;;;;;43.38;24.63;;;;;;;;;;10358262;28;21226;-90
2022/11/03 05:22:00;;;;;;;46.53;24.87;;;;;;;;;;10370953;28;20851;-90
2022/11/03 05:27:02;;;;;;;49.72;25.20;;;;;;;;;;10369678;28;20417;-89
2022/11/03 05:32:16;;;;;;;47.13;25.05;;;;;;;;;;10414164;23;20493;-95
2022/11/03 05:42:51;;;;;;;45.47;24.83;;;;;;;;;;10367634;28;20434;-94
2022/11/03 05:47:57;;;;;;;42.42;24.38;;;;;;;;;;10368195;28;20447;-95
2022/11/03 05:53:12;;;;;;;43.85;24.10;;;;;;;;;;10355581;28;20473;-94
2022/11/03 05:58:24;;;;;;;42.03;23.77;;;;;;;;;;10368696;28;20523;-94
2022/11/03 06:03:46;;;;;;;46.85;25.52;;;;;;;;;;10355674;28;20411;-92
2022/11/03 06:08:51;;;;;;;49.05;25.33;;;;;;;;;;10367312;28;20462;-95
2022/11/03 06:14:12;;;;;;;49.47;26.80;;;;;;;;;;10348319;28;20494;-93
2022/11/03 06:25:22;;;;;;;45.55;25.15;;;;;;;;;;10328065;28;20759;-96
2022/11/03 06:30:29;;;;;;;47.20;25.73;;;;;;;;;;10365704;28;20470;-94
2022/11/03 06:35:31;;;;;;;48.35;25.08;;;;;;;;;;10359832;28;21126;-95
2022/11/03 06:40:37;;;;;;;42.50;24.88;;;;;;;;;;10360251;28;20490;-92
2022/11/03 06:45:43;;;;;;;44.22;24.15;;;;;;;;;;10364982;28;21028;-94
2022/11/03 06:50:45;;;;;;;45.53;26.38;;;;;;;;;;10365507;28;20450;-93
2022/11/03 06:55:49;;;;;;;44.17;23.75;;;;;;;;;;10343085;28;20989;-94
2022/11/03 07:00:51;;;;;;;42.07;24.00;;;;;;;;;;10349481;28;20418;-94
2022/11/03 07:06:03;;;;;;;44.05;24.70;;;;;;;;;;10354615;28;20411;-95
2022/11/03 07:11:23;;;;;;;44.47;25.73;;;;;;;;;;10365326;28;20446;-94
2022/11/03 07:16:28;;;;;;;46.45;24.90;;;;;;;;;;10346920;28;20903;-95
2022/11/03 07:21:36;;;;;;;44.63;24.00;;;;;;;;;;10345217;28;20499;-93
2022/11/03 07:26:40;;;;;;;50.88;25.02;;;;;;;;;;10359196;28;20494;-93
2022/11/03 07:31:42;;;;;;;43.33;24.67;;;;;;;;;;10356051;28;20415;-94
2022/11/03 07:36:45;;;;;;;37.83;21.30;;;;;;;;;;10359597;28;20444;-93
2022/11/03 07:41:54;;;;;;;32.33;18.65;;;;;;;;;;10357334;28;20418;-94
2022/11/03 07:46:56;;;;;;;34.00;18.30;;;;;;;;;;10361798;28;20489;-93
2022/11/03 07:51:59;;;;;;;33.70;18.60;;;;;;;;;;10354441;28;20420;-95
2022/11/03 07:57:15;;;;;;;33.30;18.50;;;;;;;;;;10360135;28;20430;-94
2022/11/03 08:02:29;;;;;;;32.17;19.30;;;;;;;;;;10353825;28;20746;-93
2022/11/03 08:07:31;;;;;;;32.83;18.38;;;;;;;;;;10351997;28;20451;-94
2022/11/03 08:12:35;;;;;;;32.40;18.40;;;;;;;;;;10355173;28;20414;-94
2022/11/03 08:17:36;;;;;;;32.28;18.85;;;;;;;;;;10354026;28;20847;-91
2022/11/03 08:22:38;;;;;;;36.28;19.23;;;;;;;;;;10348284;28;20486;-91
2022/11/03 08:27:42;;;;;;;35.85;19.60;;;;;;;;;;10350046;28;20442;-94
2022/11/03 08:32:44;;;;;;;35.50;20.13;;;;;;;;;;10347299;28;20411;-86
2022/11/03 08:37:46;;;;;;;33.90;19.47;;;;;;;;;;10348371;28;20399;-95
2022/11/03 08:42:55;;;;;;;36.95;19.85;;;;;;;;;;10329272;28;20475;-95
2022/11/03 08:47:57;;;;;;;38.67;21.02;;;;;;;;;;10350233;28;20446;-95
2022/11/03 08:53:12;;;;;;;36.03;20.45;;;;;;;;;;10349494;28;20509;-96
2022/11/03 09:04:15;;;;;;;46.55;23.80;;;;;;;;;;10331684;28;20418;-95
2022/11/03 09:09:20;;;;;;;39.90;22.90;;;;;;;;;;10335964;28;20473;-96
2022/11/03 09:14:23;;;;;;;45.10;24.15;;;;;;;;;;10348266;28;20872;-96
2022/11/03 09:19:25;;;;;;;44.55;23.80;;;;;;;;;;10362413;28;20493;-95
2022/11/03 09:24:27;;;;;;;48.03;25.30;;;;;;;;;;10364144;28;20407;-93
2022/11/03 09:29:31;;;;;;;45.90;25.27;;;;;;;;;;10363342;28;20911;-94
2022/11/03 09:34:33;;;;;;;49.00;24.77;;;;;;;;;;10358779;28;20556;-96
2022/11/03 09:39:35;;;;;;;44.22;25.60;;;;;;;;;;10356988;28;20732;-96
2022/11/03 09:44:39;;;;;;;52.20;25.15;;;;;;;;;;10328996;28;20793;-96
2022/11/03 09:49:41;;;;;;;43.97;24.08;;;;;;;;;;10363616;28;20413;-95
2022/11/03 09:55:41;;;;;;;45.67;25.27;;;;;;;;;;10339230;28;20486;-95
2022/11/03 10:00:46;;;;;;;44.85;26.40;;;;;;;;;;10234311;28;20417;-95
2022/11/03 10:05:48;;;;;;;46.60;26.63;;;;;;;;;;10344474;28;20421;-95
2022/11/03 10:11:04;;;;;;;50.23;25.97;;;;;;;;;;10361738;28;20414;-96
2022/11/03 10:16:10;;;;;;;49.07;26.83;;;;;;;;;;10356927;28;20919;-96
2022/11/03 10:21:17;;;;;;;44.97;25.60;;;;;;;;;;10354387;28;20744;-95
2022/11/03 10:26:21;;;;;;;48.90;27.40;;;;;;;;;;10348303;28;20409;-95
2022/11/03 10:31:32;;;;;;;51.03;27.98;;;;;;;;;;10355669;28;20469;-96
2022/11/03 10:36:35;;;;;;;47.63;27.45;;;;;;;;;;10362443;28;20461;-95
2022/11/03 10:41:38;;;;;;;51.85;28.85;;;;;;;;;;10363243;28;20430;-96
2022/11/03 10:46:56;;;;;;;54.13;29.80;;;;;;;;;;10361114;28;20422;-96
2022/11/03 10:57:54;;;;;;;51.10;28.05;;;;;;;;;;10342302;28;20407;-96
2022/11/03 11:03:00;;;;;;;53.50;27.95;;;;;;;;;;10361193;28;20474;-96
2022/11/03 11:14:22;;;;;;;56.65;29.02;;;;;;;;;;10312507;28;20814;-96
2022/11/03 11:25:08;;;;;;;56.03;29.00;;;;;;;;;;10368401;23;20417;-96
2022/11/03 11:31:04;;;;;;;52.40;28.37;;;;;;;;;;10358649;28;20421;-96
2022/11/03 11:42:12;;;;;;;49.40;26.83;;;;;;;;;;10355041;28;20804;-96
2022/11/03 11:47:44;;;;;;;48.47;25.98;;;;;;;;;;10359790;28;20418;-96
2022/11/03 11:53:10;;;;;;;46.00;24.95;;;;;;;;;;10291946;28;20411;-96
2022/11/03 11:58:45;;;;;;;45.00;25.05;;;;;;;;;;10357000;28;20934;-96
2022/11/03 12:10:49;;;;;;;42.13;22.70;;;;;;;;;;10187939;29;20902;-96
2022/11/03 12:16:28;;;;;;;43.25;23.95;;;;;;;;;;10193000;29;20835;-96
2022/11/03 12:21:48;;;;;;;47.33;24.55;;;;;;;;;;10339542;28;20434;-96
2022/11/03 12:27:26;;;;;;;43.58;23.95;;;;;;;;;;10349841;28;20426;-96
2022/11/03 12:33:03;;;;;;;47.78;24.40;;;;;;;;;;10332721;28;20887;-95
2022/11/03 12:38:20;;;;;;;52.13;27.67;;;;;;;;;;10356276;28;20419;-94
2022/11/03 12:43:22;;;;;;;52.47;26.90;;;;;;;;;;10350346;28;20435;-96
2022/11/03 12:48:24;;;;;;;52.03;28.57;;;;;;;;;;10358894;28;20426;-95
2022/11/03 12:53:29;;;;;;;55.67;29.60;;;;;;;;;;10363137;28;20419;-96
2022/11/03 12:58:45;;;;;;;57.45;28.13;;;;;;;;;;10363286;28;20411;-96
2022/11/03 13:04:06;;;;;;;;;;;;;;;;;;;;;
2022/11/03 13:09:09;;;;;;;57.07;29.40;;;;;;;;;;10371080;28;20446;-96
2022/11/03 13:14:20;;;;;;;62.47;32.30;;;;;;;;;;10369226;28;20483;-96
2022/11/03 13:19:22;;;;;;;62.80;32.83;;;;;;;;;;10368887;28;20415;-96
2022/11/03 13:24:25;;;;;;;63.03;32.80;;;;;;;;;;10367693;28;20471;-96
2022/11/03 13:42:05;;;;;;;66.15;32.22;;;;;;;;;;10217885;29;20409;-96
2022/11/03 13:47:21;;;;;;;65.50;33.63;;;;;;;;;;10167186;29;20424;-96
2022/11/03 13:52:56;;;;;;;68.20;33.22;;;;;;;;;;10237969;29;20416;-96
2022/11/03 13:58:01;;;;;;;63.13;32.47;;;;;;;;;;10245997;28;20861;-95
2022/11/03 14:18:56;;;;;;;56.97;28.15;;;;;;;;;;10309023;28;20406;-95
2022/11/03 14:24:01;;;;;;;57.87;29.13;;;;;;;;;;10353504;28;20419;-95
2022/11/03 14:29:07;;;;;;;57.70;28.73;;;;;;;;;;10357460;28;20490;-96
2022/11/03 14:34:10;;;;;;;54.37;28.10;;;;;;;;;;10357470;28;20852;-96
2022/11/03 14:39:15;;;;;;;54.85;27.80;;;;;;;;;;10362149;28;20411;-96
2022/11/03 14:44:49;;;;;;;55.03;27.73;;;;;;;;;;10362401;28;20482;-95
2022/11/03 14:49:55;;;;;;;52.90;27.80;;;;;;;;;;10339164;28;20505;-96
2022/11/03 14:55:07;;;;;;;54.45;27.25;;;;;;;;;;10364797;28;20749;-96
2022/11/03 15:06:57;;;;;;;60.67;28.50;;;;;;;;;;10381437;28;20457;-95
2022/11/03 15:12:05;;;;;;;56.50;29.13;;;;;;;;;;10360918;28;20769;-95
2022/11/03 15:17:07;;;;;;;59.40;28.73;;;;;;;;;;10359889;28;20430;-96
2022/11/03 15:22:10;;;;;;;56.50;28.75;;;;;;;;;;10353839;28;20482;-95
2022/11/03 15:27:18;;;;;;;54.38;27.42;;;;;;;;;;10354342;28;20477;-96
2022/11/03 15:32:21;;;;;;;59.20;28.38;;;;;;;;;;10356748;28;20506;-94
2022/11/03 15:37:38;;;;;;;52.42;27.10;;;;;;;;;;10263105;28;21175;-95
2022/11/03 15:42:46;;;;;;;53.30;27.27;;;;;;;;;;10220474;28;20428;-95
2022/11/03 15:47:51;;;;;;;55.58;28.83;;;;;;;;;;10240639;28;20411;-95
2022/11/03 15:58:25;;;;;;;53.30;28.03;;;;;;;;;;10231327;28;20529;-95
2022/11/03 16:03:39;;;;;;;56.90;27.90;;;;;;;;;;10231648;28;20494;-95
2022/11/03 16:08:52;;;;;;;57.95;28.90;;;;;;;;;;10235871;28;20419;-94
2022/11/03 16:14:08;;;;;;;53.13;28.33;;;;;;;;;;10204059;28;20972;-95
2022/11/03 16:19:10;;;;;;;55.50;28.83;;;;;;;;;;10207054;28;20438;-96
2022/11/03 16:24:14;;;;;;;61.25;30.58;;;;;;;;;;10195580;28;20418;-94
2022/11/03 16:29:23;;;;;;;70.03;36.25;;;;;;;;;;10368415;28;20453;-95
2022/11/03 16:40:46;;;;;;;63.78;32.97;;;;;;;;;;10241318;28;20417;-95
2022/11/03 16:51:29;;;;;;;;;;;;;;;;;;;;;
2022/11/03 16:57:20;;;;;;;63.37;30.20;;;;;;;;;;10195527;29;20437;-96
2022/11/03 17:02:22;;;;;;;58.90;29.90;;;;;;;;;;10201778;29;20410;-95
2022/11/03 17:07:27;;;;;;;61.78;29.90;;;;;;;;;;10268932;28;20747;-94
2022/11/03 17:12:58;;;;;;;59.45;31.50;;;;;;;;;;10358051;28;20431;-95
2022/11/03 17:18:02;;;;;;;59.13;31.13;;;;;;;;;;10361943;28;20415;-95
2022/11/03 17:23:04;;;;;;;60.75;31.25;;;;;;;;;;10367903;28;20812;-94
2022/11/03 17:28:12;;;;;;;59.97;31.35;;;;;;;;;;10358644;28;20406;-93
2022/11/03 17:33:19;;;;;;;58.88;31.17;;;;;;;;;;10359710;28;20493;-93
2022/11/03 17:38:20;;;;;;;59.60;31.60;;;;;;;;;;10365766;23;20439;-88
2022/11/03 17:43:25;;;;;;;62.72;31.52;;;;;;;;;;10311082;28;20523;-89
2022/11/03 17:48:29;;;;;;;61.27;32.57;;;;;;;;;;10310876;28;20438;-90
2022/11/03 17:53:32;;;;;;;63.10;32.92;;;;;;;;;;10309845;28;20464;-88
2022/11/03 17:58:37;;;;;;;64.53;31.95;;;;;;;;;;10318930;28;20429;-89
2022/11/03 18:03:43;;;;;;;65.07;34.17;;;;;;;;;;10295296;28;20432;-87
2022/11/03 18:08:45;;;;;;;61.85;33.25;;;;;;;;;;10312681;28;20413;-89
2022/11/03 18:13:57;;;;;;;65.78;33.13;;;;;;;;;;10307908;28;20430;-89
2022/11/03 18:19:05;;;;;;;65.20;33.63;;;;;;;;;;10309542;28;20431;-89
2022/11/03 18:24:11;;;;;;;68.33;34.03;;;;;;;;;;10319705;28;20415;-90
2022/11/03 18:29:22;;;;;;;70.15;34.42;;;;;;;;;;10336626;28;20418;-88
2022/11/03 18:34:27;;;;;;;71.55;35.25;;;;;;;;;;10331274;28;20427;-90
2022/11/03 18:39:29;;;;;;;72.28;36.40;;;;;;;;;;10324885;28;20441;-91
2022/11/03 18:44:41;;;;;;;69.00;34.83;;;;;;;;;;10303771;28;20442;-89
2022/11/03 18:49:46;;;;;;;72.63;36.28;;;;;;;;;;10307227;28;20426;-89
2022/11/03 18:54:51;;;;;;;65.40;35.33;;;;;;;;;;10321419;28;20433;-90
2022/11/03 18:59:53;;;;;;;70.40;35.25;;;;;;;;;;10328469;28;20477;-90
2022/11/03 19:04:56;;;;;;;71.25;35.22;;;;;;;;;;10335743;28;20417;-90
2022/11/03 19:09:59;;;;;;;72.70;35.70;;;;;;;;;;10304183;28;21126;-91
2022/11/03 19:15:20;;;;;;;75.72;36.97;;;;;;;;;;10316874;28;22271;-91
2022/11/03 19:20:24;;;;;;;79.65;38.30;;;;;;;;;;10299562;28;20753;-90
2022/11/03 19:25:42;;;;;;;79.17;38.03;;;;;;;;;;10295938;28;20412;-89
2022/11/03 19:30:44;;;;;;;76.80;37.70;;;;;;;;;;10302463;28;20764;-90
2022/11/03 19:35:58;;;;;;;69.47;36.33;;;;;;;;;;10301516;28;20495;-90
2022/11/03 19:59:33;;;;;;;75.07;38.22;;;;;;;;;;10033942;29;20405;-93
2022/11/03 20:05:17;;;;;;;74.53;37.65;;;;;;;;;;10042296;29;20423;-92
2022/11/03 20:11:08;;;;;;;74.40;37.15;;;;;;;;;;10307650;28;20420;-90
2022/11/03 20:16:31;;;;;;;70.40;38.50;;;;;;;;;;10263273;28;20970;-91
2022/11/03 20:28:04;;;;;;;74.07;37.40;;;;;;;;;;10226003;28;20392;-92
2022/11/03 20:38:48;;;;;;;73.00;38.00;;;;;;;;;;10310159;28;20432;-90
2022/11/03 20:44:30;;;;;;;69.93;36.95;;;;;;;;;;10311935;28;20432;-91
